createdAt,value
2022-08-21T00:00:25.935Z,2.28
2022-08-21T00:03:27.450Z,1.70
2022-08-21T00:06:28.964Z,1.77
2022-08-21T00:09:30.525Z,2.08
2022-08-21T00:12:32.151Z,2.10
2022-08-21T00:15:36.364Z,1.65
2022-08-21T00:18:38.332Z,1.70
2022-08-21T00:21:40.160Z,1.70
2022-08-21T00:24:45.770Z,1.80
2022-08-21T00:27:49.265Z,1.73
2022-08-21T00:30:50.796Z,1.60
2022-08-21T00:34:00.568Z,1.75
2022-08-21T00:37:02.733Z,1.50
2022-08-21T00:40:07.731Z,1.60
2022-08-21T00:43:11.681Z,1.60
2022-08-21T00:46:13.358Z,1.55
2022-08-21T00:49:15.533Z,1.60
2022-08-21T00:52:23.018Z,1.88
2022-08-21T00:55:25.288Z,1.63
2022-08-21T00:58:31.605Z,1.70
2022-08-21T01:01:33.376Z,1.67
2022-08-21T01:04:35.549Z,1.55
2022-08-21T01:07:37.435Z,1.60
2022-08-21T01:10:39.812Z,1.50
2022-08-21T01:13:45.739Z,1.70
2022-08-21T01:16:50.871Z,1.58
2022-08-21T01:19:53.101Z,1.58
2022-08-21T01:22:54.685Z,1.70
2022-08-21T01:25:56.730Z,1.67
2022-08-21T01:29:03.706Z,1.33
2022-08-21T01:32:09.058Z,1.40
2022-08-21T01:35:14.076Z,1.50
2022-08-21T01:38:15.855Z,1.48
2022-08-21T01:41:17.545Z,1.38
2022-08-21T01:44:22.588Z,1.70
2022-08-21T01:47:24.572Z,1.45
2022-08-21T01:50:26.163Z,1.35
2022-08-21T01:53:33.198Z,1.60
2022-08-21T01:56:44.472Z,1.27
2022-08-21T01:59:45.994Z,1.50
2022-08-21T02:02:47.545Z,1.60
2022-08-21T02:05:49.084Z,1.42
2022-08-21T02:08:51.571Z,1.58
2022-08-21T02:11:53.649Z,1.40
2022-08-21T02:14:55.164Z,1.60
2022-08-21T02:18:00.153Z,1.80
2022-08-21T02:21:01.973Z,1.63
2022-08-21T02:24:04.123Z,1.67
2022-08-21T02:27:05.743Z,1.42
2022-08-21T02:30:08.516Z,2.15
2022-08-21T02:33:11.792Z,2.17
2022-08-21T02:36:14.000Z,1.45
2022-08-21T02:39:15.527Z,1.58
2022-08-21T02:42:17.184Z,1.60
2022-08-21T02:45:19.692Z,1.60
2022-08-21T02:48:23.953Z,2.00
2022-08-21T02:51:26.029Z,1.55
2022-08-21T02:54:27.544Z,1.60
2022-08-21T02:57:29.125Z,2.05
2022-08-21T03:00:33.014Z,1.90
2022-08-21T03:03:36.134Z,1.58
2022-08-21T03:06:38.188Z,1.55
2022-08-21T03:09:39.713Z,1.80
2022-08-21T03:12:57.409Z,1.80
2022-08-21T03:16:00.181Z,1.80
2022-08-21T03:19:02.109Z,1.67
2022-08-21T03:22:03.849Z,1.60
2022-08-21T03:25:06.294Z,1.60
2022-08-21T03:28:13.007Z,1.65
2022-08-21T03:31:15.321Z,1.58
2022-08-21T03:34:16.855Z,2.03
2022-08-21T03:37:18.695Z,1.80
2022-08-21T03:40:21.444Z,1.80
2022-08-21T03:43:23.061Z,1.92
2022-08-21T03:46:24.654Z,1.70
2022-08-21T03:49:26.943Z,1.70
2022-08-21T03:52:28.596Z,1.60
2022-08-21T03:55:30.717Z,1.52
2022-08-21T03:58:32.452Z,1.80
2022-08-21T04:01:34.072Z,1.80
2022-08-21T04:04:35.941Z,1.73
2022-08-21T04:07:37.527Z,2.13
2022-08-21T04:10:44.169Z,1.77
2022-08-21T04:13:46.220Z,1.70
2022-08-21T04:16:47.742Z,1.40
2022-08-21T04:19:53.652Z,1.98
2022-08-21T04:22:56.100Z,1.80
2022-08-21T04:25:58.547Z,1.50
2022-08-21T04:29:00.071Z,1.67
2022-08-21T04:32:01.605Z,2.10
2022-08-21T04:35:06.655Z,1.67
2022-08-21T04:38:08.201Z,1.98
2022-08-21T04:41:10.205Z,1.70
2022-08-21T04:44:11.731Z,1.77
2022-08-21T04:47:13.227Z,1.30
2022-08-21T04:50:15.311Z,1.92
2022-08-21T04:53:28.175Z,1.73
2022-08-21T04:56:37.931Z,1.77
2022-08-21T04:59:44.361Z,1.85
2022-08-21T05:02:48.391Z,1.77
2022-08-21T05:05:50.556Z,1.90
2022-08-21T05:09:01.578Z,2.20
2022-08-21T05:12:04.012Z,2.15
2022-08-21T05:15:05.869Z,2.22
2022-08-21T05:18:07.763Z,2.03
2022-08-21T05:21:10.492Z,2.13
2022-08-21T05:24:12.350Z,2.58
2022-08-21T05:27:13.889Z,2.33
2022-08-21T05:30:20.559Z,2.58
2022-08-21T05:33:22.100Z,2.25
2022-08-21T05:36:23.817Z,2.33
2022-08-21T05:39:25.317Z,2.00
2022-08-21T05:42:29.900Z,2.03
2022-08-21T05:45:43.418Z,2.50
2022-08-21T05:48:45.525Z,2.65
2022-08-21T05:51:47.121Z,2.55
2022-08-21T05:54:48.769Z,2.00
2022-08-21T05:57:50.310Z,2.50
2022-08-21T06:00:53.691Z,2.40
2022-08-21T06:03:57.223Z,2.78
2022-08-21T06:06:59.819Z,2.60
2022-08-21T06:10:01.891Z,2.88
2022-08-21T06:13:03.694Z,2.35
2022-08-21T06:16:08.853Z,2.40
2022-08-21T06:19:10.403Z,2.22
2022-08-21T06:22:11.978Z,2.47
2022-08-21T06:25:13.671Z,2.42
2022-08-21T06:28:15.386Z,2.90
2022-08-21T06:31:23.171Z,2.47
2022-08-21T06:34:24.744Z,2.50
2022-08-21T06:37:26.452Z,2.53
2022-08-21T06:40:29.836Z,2.47
2022-08-21T06:43:39.278Z,2.60
2022-08-21T06:46:41.506Z,2.60
2022-08-21T06:49:43.480Z,2.28
2022-08-21T06:52:45.022Z,2.25
2022-08-21T06:55:47.946Z,2.40
2022-08-21T06:58:49.566Z,2.97
2022-08-21T07:01:51.147Z,2.67
2022-08-21T07:04:52.872Z,2.70
2022-08-21T07:07:54.435Z,2.70
2022-08-21T07:10:57.913Z,2.70
2022-08-21T07:13:59.451Z,2.90
2022-08-21T07:17:01.654Z,2.80
2022-08-21T07:20:05.429Z,2.55
2022-08-21T07:23:11.450Z,2.45
2022-08-21T07:26:14.100Z,2.60
2022-08-21T07:29:15.879Z,2.58
2022-08-21T07:32:21.290Z,2.63
2022-08-21T07:35:24.109Z,2.58
2022-08-21T07:38:26.033Z,2.25
2022-08-21T07:41:30.183Z,2.90
2022-08-21T07:44:31.792Z,2.30
2022-08-21T07:47:42.532Z,2.90
2022-08-21T07:50:44.804Z,3.05
2022-08-21T07:53:51.611Z,2.60
2022-08-21T07:56:53.162Z,2.75
2022-08-21T07:59:54.728Z,2.70
2022-08-21T08:02:56.668Z,2.50
2022-08-21T08:05:58.966Z,2.75
2022-08-21T08:09:03.609Z,2.40
2022-08-21T08:12:05.404Z,2.45
2022-08-21T08:15:10.092Z,2.20
2022-08-21T08:18:11.765Z,2.67
2022-08-21T08:21:14.189Z,2.55
2022-08-21T08:24:19.020Z,2.25
2022-08-21T08:27:21.920Z,2.20
2022-08-21T08:30:24.621Z,2.30
2022-08-21T08:33:26.203Z,2.22
2022-08-21T08:36:36.068Z,2.53
2022-08-21T08:39:38.248Z,2.30
2022-08-21T08:42:40.652Z,2.28
2022-08-21T08:45:47.696Z,2.67
2022-08-21T08:48:54.660Z,2.90
2022-08-21T08:52:05.940Z,2.22
2022-08-21T08:55:10.049Z,2.20
2022-08-21T08:58:19.526Z,2.22
2022-08-21T09:01:21.764Z,2.83
2022-08-21T09:04:28.715Z,2.40
2022-08-21T09:07:52.121Z,2.40
2022-08-21T09:11:11.315Z,2.20
2022-08-21T09:14:45.020Z,2.17
2022-08-21T09:18:07.595Z,2.22
2022-08-21T09:21:52.845Z,2.60
2022-08-21T09:25:21.686Z,2.85
2022-08-21T09:28:25.654Z,2.50
2022-08-21T09:31:34.951Z,2.35
2022-08-21T09:34:37.086Z,2.40
2022-08-21T09:37:50.774Z,2.55
2022-08-21T09:40:58.279Z,2.25
2022-08-21T09:43:59.846Z,2.15
2022-08-21T09:47:01.819Z,2.40
2022-08-21T09:50:26.196Z,2.30
2022-08-21T09:53:35.649Z,2.00
2022-08-21T09:57:12.965Z,2.53
2022-08-21T10:00:36.368Z,2.22
2022-08-21T10:03:37.935Z,2.28
2022-08-21T10:06:40.089Z,2.17
2022-08-21T10:09:42.681Z,2.10
2022-08-21T10:13:21.709Z,2.20
2022-08-21T10:16:33.953Z,2.13
2022-08-21T10:19:41.413Z,2.00
2022-08-21T10:23:02.408Z,2.15
2022-08-21T10:26:37.126Z,2.47
2022-08-21T10:30:06.459Z,2.13
2022-08-21T10:33:18.470Z,2.30
2022-08-21T10:36:25.883Z,2.40
2022-08-21T10:39:46.237Z,2.33
2022-08-21T10:46:14.086Z,2.28
2022-08-21T10:49:22.776Z,2.00
2022-08-21T10:52:55.568Z,1.95
2022-08-21T10:56:13.196Z,2.58
2022-08-21T10:59:43.115Z,2.50
2022-08-21T11:03:02.448Z,2.53
2022-08-21T11:06:11.615Z,2.63
2022-08-21T11:09:20.169Z,1.98
2022-08-21T11:12:30.520Z,2.50
2022-08-21T11:16:12.099Z,2.05
2022-08-21T11:19:20.091Z,2.05
2022-08-21T11:22:59.991Z,2.08
2022-08-21T11:26:35.381Z,1.77
2022-08-21T11:29:40.602Z,2.30
2022-08-21T11:33:06.165Z,2.20
2022-08-21T11:36:22.288Z,1.92
2022-08-21T11:39:50.224Z,1.90
2022-08-21T11:43:00.307Z,1.60
2022-08-21T11:46:10.891Z,1.90
2022-08-21T11:49:15.372Z,1.70
2022-08-21T11:52:35.101Z,1.80
2022-08-21T11:55:45.735Z,5.55
2022-08-21T11:58:53.403Z,1.77
2022-08-21T12:01:58.179Z,1.83
2022-08-21T12:05:10.303Z,1.80
2022-08-21T12:08:31.852Z,1.80
2022-08-21T12:11:51.064Z,2.08
2022-08-21T12:15:13.353Z,1.80
2022-08-21T12:18:29.292Z,2.40
2022-08-21T12:21:30.948Z,2.25
2022-08-21T12:24:32.454Z,1.80
2022-08-21T12:27:51.408Z,2.00
2022-08-21T12:30:57.869Z,2.00
2022-08-21T12:34:04.160Z,2.08
2022-08-21T12:37:21.081Z,2.33
2022-08-21T12:40:39.889Z,1.70
2022-08-21T12:43:46.048Z,2.00
2022-08-21T12:46:51.287Z,2.08
2022-08-21T12:49:58.885Z,1.92
2022-08-21T12:53:05.733Z,2.40
2022-08-21T12:56:24.507Z,2.20
2022-08-21T12:59:26.208Z,1.90
2022-08-21T13:02:32.914Z,2.20
2022-08-21T13:05:38.215Z,2.15
2022-08-21T13:08:43.467Z,2.08
2022-08-21T13:11:49.947Z,1.85
2022-08-21T13:14:58.198Z,1.90
2022-08-21T13:18:03.247Z,1.90
2022-08-21T13:21:12.308Z,1.90
2022-08-21T13:24:43.417Z,2.15
2022-08-21T13:28:12.446Z,2.78
2022-08-21T13:31:21.318Z,2.05
2022-08-21T13:34:32.553Z,1.63
2022-08-21T13:37:34.165Z,1.90
2022-08-21T13:41:06.073Z,1.95
2022-08-21T13:44:22.832Z,2.28
2022-08-21T13:47:24.432Z,2.20
2022-08-21T13:50:27.588Z,2.20
2022-08-21T13:53:32.583Z,2.47
2022-08-21T13:56:46.275Z,2.38
2022-08-21T13:59:47.808Z,2.03
2022-08-21T14:02:53.928Z,2.20
2022-08-21T14:05:55.575Z,2.17
2022-08-21T14:09:00.577Z,2.22
2022-08-21T14:12:13.609Z,2.40
2022-08-21T14:15:29.539Z,2.13
2022-08-21T14:18:31.176Z,2.63
2022-08-21T14:21:36.351Z,2.95
2022-08-21T14:24:40.908Z,3.28
2022-08-21T14:27:54.249Z,3.50
2022-08-21T14:30:57.613Z,3.10
2022-08-21T14:33:59.974Z,3.30
2022-08-21T14:37:01.506Z,2.97
2022-08-21T14:40:04.889Z,3.38
2022-08-21T14:43:09.200Z,3.47
2022-08-21T14:46:11.688Z,3.17
2022-08-21T14:49:13.406Z,3.45
2022-08-21T14:52:16.150Z,3.67
2022-08-21T14:55:19.332Z,3.35
2022-08-21T14:58:21.333Z,3.58
2022-08-21T15:01:23.258Z,3.35
2022-08-21T15:04:24.878Z,3.70
2022-08-21T15:07:26.650Z,3.33
2022-08-21T15:10:28.801Z,3.08
2022-08-21T15:13:31.679Z,3.63
2022-08-21T15:16:34.438Z,4.03
2022-08-21T15:19:36.508Z,3.97
2022-08-21T15:22:38.045Z,3.40
2022-08-21T15:25:43.150Z,3.92
2022-08-21T15:28:44.756Z,3.90
2022-08-21T15:31:56.121Z,3.50
2022-08-21T15:34:59.314Z,3.30
2022-08-21T15:38:00.858Z,3.20
2022-08-21T15:41:04.708Z,3.10
2022-08-21T15:44:06.335Z,2.90
2022-08-21T15:47:12.766Z,3.22
2022-08-21T15:50:14.941Z,3.15
2022-08-21T15:53:16.476Z,3.13
2022-08-21T15:56:28.525Z,3.10
2022-08-21T15:59:39.055Z,2.85
2022-08-21T16:02:45.452Z,2.65
2022-08-21T16:05:49.470Z,3.05
2022-08-21T16:08:50.985Z,3.10
2022-08-21T16:11:52.624Z,3.40
2022-08-21T16:14:54.834Z,2.95
2022-08-21T16:17:57.356Z,3.20
2022-08-21T16:20:58.881Z,3.25
2022-08-21T16:24:00.453Z,3.85
2022-08-21T16:27:02.898Z,3.90
2022-08-21T16:30:06.946Z,4.50
2022-08-21T16:33:16.972Z,4.40
2022-08-21T16:36:18.768Z,4.10
2022-08-21T16:39:20.720Z,3.80
2022-08-21T16:42:25.868Z,3.95
2022-08-21T16:45:32.477Z,3.55
2022-08-21T16:48:34.845Z,3.58
2022-08-21T16:51:39.172Z,4.03
2022-08-21T16:54:43.308Z,4.97
2022-08-21T16:57:44.973Z,3.90
2022-08-21T17:00:46.564Z,4.30
2022-08-21T17:03:51.132Z,4.65
2022-08-21T17:06:53.284Z,4.38
2022-08-21T17:09:55.126Z,4.47
2022-08-21T17:12:58.433Z,4.05
2022-08-21T17:16:00.405Z,3.75
2022-08-21T17:19:01.929Z,4.10
2022-08-21T17:22:04.594Z,3.90
2022-08-21T17:25:06.713Z,3.85
2022-08-21T17:28:09.705Z,3.30
2022-08-21T17:31:12.751Z,3.78
2022-08-21T17:34:14.952Z,3.30
2022-08-21T17:37:16.634Z,3.47
2022-08-21T17:40:18.306Z,3.40
2022-08-21T17:43:20.070Z,3.30
2022-08-21T17:46:29.396Z,3.42
2022-08-21T17:49:31.015Z,3.40
2022-08-21T17:52:32.632Z,3.70
2022-08-21T17:55:34.798Z,2.97
2022-08-21T17:58:37.224Z,3.10
2022-08-21T18:01:42.659Z,3.40
2022-08-21T18:04:44.253Z,3.25
2022-08-21T18:07:45.965Z,3.55
2022-08-21T18:10:50.200Z,3.30
2022-08-21T18:13:54.519Z,3.22
2022-08-21T18:16:56.640Z,3.20
2022-08-21T18:19:59.665Z,3.13
2022-08-21T18:23:01.436Z,2.90
2022-08-21T18:26:03.349Z,3.20
2022-08-21T18:29:11.427Z,3.10
2022-08-21T18:32:30.247Z,3.10
2022-08-21T18:35:33.651Z,3.10
2022-08-21T18:38:35.832Z,2.85
2022-08-21T18:41:37.509Z,2.60
2022-08-21T18:44:40.745Z,2.80
2022-08-21T18:47:50.069Z,2.80
2022-08-21T18:50:51.831Z,2.60
2022-08-21T18:53:55.607Z,2.28
2022-08-21T18:56:58.185Z,2.60
2022-08-21T18:59:59.978Z,2.10
2022-08-21T19:03:06.083Z,2.38
2022-08-21T19:09:32.256Z,2.03
2022-08-21T19:12:34.599Z,2.17
2022-08-21T19:15:38.694Z,2.03
2022-08-21T19:18:41.820Z,2.05
2022-08-21T19:21:44.689Z,2.10
2022-08-21T19:24:49.824Z,2.08
2022-08-21T19:27:51.823Z,2.47
2022-08-21T19:31:19.786Z,2.30
2022-08-21T19:34:28.469Z,2.42
2022-08-21T19:37:29.969Z,2.50
2022-08-21T19:40:31.758Z,2.60
2022-08-21T19:43:39.745Z,2.30
2022-08-21T19:46:43.336Z,2.22
2022-08-21T19:49:54.010Z,2.45
2022-08-21T19:52:57.000Z,2.60
2022-08-21T19:55:58.726Z,2.67
2022-08-21T19:59:02.153Z,2.28
2022-08-21T20:02:06.495Z,2.38
2022-08-21T20:05:08.678Z,2.55
2022-08-21T20:08:11.771Z,2.40
2022-08-21T20:11:31.894Z,2.80
2022-08-21T20:14:39.356Z,2.72
2022-08-21T20:17:42.555Z,2.67
2022-08-21T20:20:46.359Z,2.13
2022-08-21T20:23:49.114Z,2.30
2022-08-21T20:26:51.255Z,2.10
2022-08-21T20:29:53.262Z,2.08
2022-08-21T20:32:54.880Z,2.20
2022-08-21T20:35:57.326Z,2.20
2022-08-21T20:38:59.430Z,2.05
2022-08-21T20:42:01.071Z,2.35
2022-08-21T20:45:08.193Z,2.03
2022-08-21T20:48:23.915Z,2.20
2022-08-21T20:51:41.398Z,2.13
2022-08-21T20:54:51.478Z,2.00
2022-08-21T20:58:18.781Z,2.10
2022-08-21T21:01:22.410Z,2.10
2022-08-21T21:04:28.031Z,2.33
2022-08-21T21:07:56.664Z,1.83
2022-08-21T21:11:01.887Z,2.00
2022-08-21T21:14:11.408Z,2.10
2022-08-21T21:21:19.342Z,1.88
2022-08-21T21:24:41.040Z,1.83
2022-08-21T21:30:57.841Z,1.80
2022-08-21T21:33:59.685Z,1.90
2022-08-21T21:37:28.648Z,2.00
2022-08-21T21:40:39.322Z,2.35
2022-08-21T21:43:54.821Z,1.90
2022-08-21T21:47:34.069Z,1.92
2022-08-21T21:50:42.880Z,1.88
2022-08-21T21:54:15.836Z,1.90
2022-08-21T21:57:44.174Z,1.98
2022-08-21T22:00:53.511Z,2.00
2022-08-21T22:04:04.189Z,1.90
2022-08-21T22:07:17.633Z,2.38
2022-08-21T22:10:46.777Z,2.15
2022-08-21T22:14:08.535Z,2.00
2022-08-21T22:17:31.829Z,2.15
2022-08-21T22:20:46.177Z,2.33
2022-08-21T22:23:51.330Z,2.00
2022-08-21T22:26:59.280Z,2.15
2022-08-21T22:30:08.140Z,2.30
2022-08-21T22:33:20.310Z,2.20
2022-08-21T22:36:21.919Z,2.53
2022-08-21T22:39:28.221Z,2.25
2022-08-21T22:42:31.200Z,1.90
2022-08-21T22:45:57.347Z,2.40
2022-08-21T22:49:20.824Z,2.25
2022-08-21T22:52:36.020Z,2.60
2022-08-21T22:55:52.354Z,2.80
2022-08-21T22:59:01.101Z,2.80
2022-08-21T23:02:25.914Z,2.30
2022-08-21T23:05:30.780Z,2.55
2022-08-21T23:08:38.316Z,2.88
2022-08-21T23:11:43.989Z,2.83
2022-08-21T23:14:45.724Z,2.55
2022-08-21T23:18:13.736Z,2.50
2022-08-21T23:21:45.050Z,2.28
2022-08-21T23:24:49.748Z,2.65
2022-08-21T23:28:00.612Z,2.25
2022-08-21T23:31:10.376Z,2.42
2022-08-21T23:34:26.442Z,2.30
2022-08-21T23:37:51.477Z,2.38
2022-08-21T23:41:19.727Z,2.28
2022-08-21T23:45:13.598Z,1.95
2022-08-21T23:48:57.851Z,2.00
2022-08-21T23:52:42.894Z,2.83
2022-08-21T23:59:30.177Z,1.90
